createdAt,value
2018-08-19T00:02:23.659Z,13.03
2018-08-19T00:05:06.168Z,11.40
2018-08-19T00:07:35.767Z,12.17
2018-08-19T00:10:06.299Z,12.60
2018-08-19T00:12:38.061Z,11.83
2018-08-19T00:15:07.967Z,11.43
2018-08-19T00:17:37.543Z,12.37
2018-08-19T00:20:09.355Z,12.77
2018-08-19T00:22:38.912Z,13.07
2018-08-19T00:25:08.970Z,10.03
2018-08-19T00:27:39.144Z,11.50
2018-08-19T00:30:09.827Z,11.30
2018-08-19T00:32:39.412Z,11.80
2018-08-19T00:35:08.923Z,11.90
2018-08-19T00:37:38.572Z,11.20
2018-08-19T00:40:12.483Z,9.50
2018-08-19T00:42:43.798Z,10.70
2018-08-19T00:45:13.748Z,10.80
2018-08-19T00:47:43.286Z,11.17
2018-08-19T00:50:12.847Z,11.17
2018-08-19T00:52:42.507Z,10.90
2018-08-19T00:55:12.302Z,11.93
2018-08-19T00:57:44.054Z,11.30
2018-08-19T01:00:13.769Z,10.70
2018-08-19T01:02:43.312Z,10.47
2018-08-19T01:05:12.976Z,10.90
2018-08-19T01:07:42.798Z,10.90
2018-08-19T01:10:12.395Z,10.57
2018-08-19T01:12:42.099Z,12.30
2018-08-19T01:15:14.675Z,10.77
2018-08-19T01:17:45.164Z,11.17
2018-08-19T01:20:19.298Z,11.20
2018-08-19T01:22:48.979Z,11.10
2018-08-19T01:25:18.778Z,10.37
2018-08-19T01:27:48.376Z,11.10
2018-08-19T01:30:21.384Z,10.70
2018-08-19T01:32:51.019Z,10.57
2018-08-19T01:35:26.977Z,10.90
2018-08-19T01:37:56.530Z,10.53
2018-08-19T01:40:26.154Z,11.07
2018-08-19T01:42:55.707Z,11.57
2018-08-19T01:45:25.275Z,11.43
2018-08-19T01:47:54.871Z,11.17
2018-08-19T01:50:24.398Z,10.80
2018-08-19T01:52:53.911Z,11.33
2018-08-19T01:55:23.484Z,11.03
2018-08-19T01:57:53.143Z,12.00
2018-08-19T02:00:22.679Z,12.03
2018-08-19T02:03:09.911Z,11.40
2018-08-19T02:05:39.485Z,12.00
2018-08-19T02:08:09.109Z,12.30
2018-08-19T02:10:38.675Z,11.70
2018-08-19T02:13:08.211Z,13.27
2018-08-19T02:15:37.791Z,12.40
2018-08-19T02:18:07.359Z,12.80
2018-08-19T02:20:38.773Z,13.83
2018-08-19T02:23:09.765Z,12.83
2018-08-19T02:25:43.283Z,12.87
2018-08-19T02:28:13.444Z,13.47
2018-08-19T02:30:52.718Z,13.13
2018-08-19T02:33:23.451Z,13.63
2018-08-19T02:36:01.156Z,13.40
2018-08-19T02:38:30.782Z,13.20
2018-08-19T02:41:00.330Z,13.20
2018-08-19T02:43:29.987Z,15.17
2018-08-19T02:45:59.592Z,14.90
2018-08-19T02:48:42.904Z,13.53
2018-08-19T02:51:14.639Z,13.73
2018-08-19T02:53:45.444Z,14.03
2018-08-19T02:56:15.750Z,12.17
2018-08-19T02:58:46.416Z,11.67
2018-08-19T03:01:16.974Z,13.40
2018-08-19T03:03:46.543Z,12.30
2018-08-19T03:06:16.143Z,12.97
2018-08-19T03:08:50.755Z,13.60
2018-08-19T03:11:21.740Z,12.47
2018-08-19T03:13:51.286Z,12.00
2018-08-19T03:16:20.868Z,11.47
2018-08-19T03:18:52.535Z,11.53
2018-08-19T03:21:22.959Z,11.67
2018-08-19T03:23:53.740Z,10.93
2018-08-19T03:26:23.337Z,12.23
2018-08-19T03:28:52.891Z,11.93
2018-08-19T03:31:22.445Z,11.37
2018-08-19T03:33:51.971Z,10.83
2018-08-19T03:36:21.549Z,11.87
2018-08-19T03:38:51.336Z,12.23
2018-08-19T03:41:20.928Z,11.47
2018-08-19T03:43:54.588Z,12.07
2018-08-19T03:46:24.147Z,11.77
2018-08-19T03:48:53.724Z,12.23
2018-08-19T03:51:23.283Z,11.17
2018-08-19T03:53:52.832Z,11.73
2018-08-19T03:56:27.740Z,12.00
2018-08-19T03:59:01.132Z,11.43
2018-08-19T04:01:38.935Z,14.50
2018-08-19T04:04:08.550Z,11.90
2018-08-19T04:06:39.648Z,12.17
2018-08-19T04:09:09.223Z,11.77
2018-08-19T04:11:38.797Z,11.80
2018-08-19T04:14:24.408Z,10.83
2018-08-19T04:16:54.351Z,11.43
2018-08-19T04:19:25.599Z,11.70
2018-08-19T04:21:58.278Z,11.20
2018-08-19T04:24:28.225Z,11.27
2018-08-19T04:26:57.866Z,9.87
2018-08-19T04:29:28.483Z,10.37
2018-08-19T04:31:58.075Z,10.83
2018-08-19T04:34:27.640Z,11.00
2018-08-19T04:36:57.256Z,11.57
2018-08-19T04:39:26.925Z,10.17
2018-08-19T04:41:56.457Z,10.90
2018-08-19T04:44:26.149Z,11.03
2018-08-19T04:46:55.704Z,10.97
2018-08-19T04:49:25.245Z,9.87
2018-08-19T04:51:54.766Z,10.27
2018-08-19T04:54:24.384Z,9.87
2018-08-19T04:56:53.895Z,10.00
2018-08-19T04:59:23.488Z,10.10
2018-08-19T05:01:53.040Z,9.60
2018-08-19T05:04:22.649Z,9.07
2018-08-19T05:06:52.222Z,8.90
2018-08-19T05:09:21.836Z,8.97
2018-08-19T05:11:51.349Z,9.47
2018-08-19T05:14:20.989Z,8.30
2018-08-19T05:16:50.477Z,8.80
2018-08-19T05:19:20.059Z,9.57
2018-08-19T05:21:49.659Z,10.37
2018-08-19T05:24:19.150Z,10.60
2018-08-19T05:26:50.976Z,9.37
2018-08-19T05:29:20.540Z,9.87
2018-08-19T05:31:58.047Z,13.13
2018-08-19T05:34:31.071Z,8.23
2018-08-19T05:37:00.975Z,8.73
2018-08-19T05:39:30.659Z,9.77
2018-08-19T05:42:07.733Z,9.37
2018-08-19T05:44:38.311Z,8.67
2018-08-19T05:47:10.868Z,8.80
2018-08-19T05:49:41.693Z,8.50
2018-08-19T05:52:16.923Z,11.23
2018-08-19T05:55:03.759Z,9.73
2018-08-19T05:57:35.163Z,9.00
2018-08-19T06:00:10.203Z,8.77
2018-08-19T06:02:42.659Z,9.23
2018-08-19T06:05:12.272Z,8.93
2018-08-19T06:07:41.915Z,8.53
2018-08-19T06:10:11.435Z,8.77
2018-08-19T06:12:40.987Z,9.43
2018-08-19T06:15:10.644Z,8.50
2018-08-19T06:17:40.217Z,8.27
2018-08-19T06:20:09.760Z,8.73
2018-08-19T06:22:40.317Z,8.57
2018-08-19T06:25:10.844Z,9.13
2018-08-19T06:27:45.443Z,8.50
2018-08-19T06:30:15.758Z,8.47
2018-08-19T06:32:45.518Z,8.77
2018-08-19T06:35:15.246Z,8.93
2018-08-19T06:37:44.859Z,8.27
2018-08-19T06:40:17.238Z,9.83
2018-08-19T06:42:46.889Z,9.00
2018-08-19T06:45:16.607Z,9.77
2018-08-19T06:47:46.323Z,9.07
2018-08-19T06:50:38.982Z,8.27
2018-08-19T06:53:13.756Z,8.73
2018-08-19T06:55:43.412Z,8.07
2018-08-19T06:58:13.059Z,8.20
2018-08-19T07:00:42.684Z,12.67
2018-08-19T07:03:12.331Z,9.00
2018-08-19T07:05:41.838Z,8.37
2018-08-19T07:08:11.429Z,8.73
2018-08-19T07:10:42.106Z,7.63
2018-08-19T07:13:13.902Z,8.60
2018-08-19T07:15:44.519Z,11.33
2018-08-19T07:18:15.371Z,8.00
2018-08-19T07:20:45.474Z,7.67
2018-08-19T07:23:15.083Z,7.00
2018-08-19T07:25:45.629Z,7.47
2018-08-19T07:28:16.743Z,8.57
2018-08-19T07:30:46.324Z,6.80
2018-08-19T07:33:15.915Z,6.47
2018-08-19T07:35:45.419Z,8.57
2018-08-19T07:38:14.975Z,7.73
2018-08-19T07:40:44.483Z,7.63
2018-08-19T07:43:14.083Z,10.90
2018-08-19T07:45:43.664Z,7.27
2018-08-19T07:48:13.199Z,6.97
2018-08-19T07:50:42.706Z,6.43
2018-08-19T07:53:12.240Z,6.87
2018-08-19T07:55:41.873Z,6.97
2018-08-19T07:58:11.435Z,6.90
2018-08-19T08:00:41.876Z,6.67
2018-08-19T08:03:11.671Z,8.93
2018-08-19T08:05:46.272Z,8.50
2018-08-19T08:08:15.818Z,7.10
2018-08-19T08:10:45.382Z,7.50
2018-08-19T08:13:15.016Z,7.43
2018-08-19T08:15:49.617Z,7.03
2018-08-19T08:18:19.279Z,7.77
2018-08-19T08:20:48.944Z,6.40
2018-08-19T08:23:22.924Z,6.27
2018-08-19T08:25:52.555Z,6.23
2018-08-19T08:28:22.263Z,8.07
2018-08-19T08:30:51.836Z,5.53
2018-08-19T08:33:21.559Z,8.90
2018-08-19T08:35:55.349Z,7.57
2018-08-19T08:38:24.883Z,6.63
2018-08-19T08:40:54.984Z,6.60
2018-08-19T08:43:24.571Z,8.20
2018-08-19T08:45:56.837Z,5.77
2018-08-19T08:48:26.739Z,5.30
2018-08-19T08:50:56.379Z,5.93
2018-08-19T08:53:31.312Z,4.50
2018-08-19T08:56:00.975Z,8.87
2018-08-19T08:58:30.570Z,9.27
2018-08-19T09:01:00.444Z,9.37
2018-08-19T09:03:30.147Z,5.17
2018-08-19T09:05:59.850Z,7.03
2018-08-19T09:08:29.518Z,4.97
2018-08-19T09:11:00.248Z,7.37
2018-08-19T09:13:29.883Z,9.90
2018-08-19T09:15:59.472Z,7.63
2018-08-19T09:18:28.959Z,5.37
2018-08-19T09:20:58.575Z,7.47
2018-08-19T09:23:28.573Z,4.83
2018-08-19T09:25:58.178Z,7.43
2018-08-19T09:28:27.755Z,4.60
2018-08-19T09:30:57.340Z,5.33
2018-08-19T09:33:26.923Z,5.83
2018-08-19T09:35:56.540Z,5.33
2018-08-19T09:38:26.191Z,4.23
2018-08-19T09:40:55.731Z,4.17
2018-08-19T09:43:25.315Z,6.50
2018-08-19T09:45:55.048Z,7.40
2018-08-19T09:48:24.566Z,3.67
2018-08-19T09:50:56.611Z,4.97
2018-08-19T09:53:26.161Z,7.27
2018-08-19T09:56:00.863Z,3.97
2018-08-19T09:58:30.416Z,5.33
2018-08-19T10:01:04.887Z,5.07
2018-08-19T10:03:34.435Z,3.70
2018-08-19T10:06:04.105Z,4.93
2018-08-19T10:08:33.723Z,6.62
2018-08-19T10:11:03.355Z,4.65
2018-08-19T10:13:33.062Z,4.12
2018-08-19T10:16:02.531Z,7.53
2018-08-19T10:18:32.124Z,5.67
2018-08-19T10:21:05.722Z,4.55
2018-08-19T10:23:35.215Z,5.03
2018-08-19T10:26:04.783Z,5.58
2018-08-19T10:28:34.275Z,7.72
2018-08-19T10:31:04.484Z,5.22
2018-08-19T10:33:33.976Z,7.50
2018-08-19T10:36:03.559Z,4.10
2018-08-19T10:38:33.067Z,4.08
2018-08-19T10:41:05.661Z,6.53
2018-08-19T10:43:35.372Z,4.90
2018-08-19T10:46:05.016Z,3.95
2018-08-19T10:48:34.532Z,9.28
2018-08-19T10:51:04.166Z,5.65
2018-08-19T10:53:33.807Z,4.12
2018-08-19T10:56:04.027Z,5.00
2018-08-19T10:58:33.747Z,5.50
2018-08-19T11:01:03.396Z,4.80
2018-08-19T11:03:33.041Z,7.33
2018-08-19T11:06:02.573Z,6.40
2018-08-19T11:08:32.322Z,3.77
2018-08-19T11:11:02.560Z,7.22
2018-08-19T11:13:32.239Z,6.40
2018-08-19T11:16:01.745Z,5.67
2018-08-19T11:18:38.353Z,4.47
2018-08-19T11:21:11.506Z,5.45
2018-08-19T11:23:42.551Z,5.78
2018-08-19T11:26:12.710Z,6.03
2018-08-19T11:28:46.439Z,6.20
2018-08-19T11:31:23.194Z,8.83
2018-08-19T11:33:53.548Z,4.97
2018-08-19T11:36:30.852Z,5.25
2018-08-19T11:39:00.592Z,5.40
2018-08-19T11:41:32.015Z,5.50
2018-08-19T11:44:09.494Z,4.37
2018-08-19T11:46:39.104Z,4.20
2018-08-19T11:49:10.159Z,5.60
2018-08-19T11:51:52.852Z,3.62
2018-08-19T11:54:23.300Z,4.08
2018-08-19T11:57:00.718Z,4.50
2018-08-19T11:59:35.275Z,7.20
2018-08-19T12:02:06.000Z,4.25
2018-08-19T12:04:35.678Z,4.35
2018-08-19T12:07:05.383Z,6.17
2018-08-19T12:09:35.092Z,4.08
2018-08-19T12:12:04.647Z,7.90
2018-08-19T12:14:35.507Z,4.80
2018-08-19T12:17:09.652Z,6.20
2018-08-19T12:19:40.378Z,3.65
2018-08-19T12:22:10.190Z,5.10
2018-08-19T12:24:46.551Z,5.42
2018-08-19T12:27:22.724Z,7.10
2018-08-19T12:30:01.045Z,6.17
2018-08-19T12:32:30.628Z,3.95
2018-08-19T12:35:01.146Z,6.40
2018-08-19T12:37:32.029Z,4.33
2018-08-19T12:40:01.858Z,4.10
2018-08-19T12:42:32.246Z,4.92
2018-08-19T12:45:06.411Z,3.67
2018-08-19T12:47:36.415Z,6.67
2018-08-19T12:50:08.740Z,4.95
2018-08-19T12:52:38.265Z,7.83
2018-08-19T12:55:09.526Z,4.40
2018-08-19T12:57:39.934Z,5.65
2018-08-19T13:00:18.996Z,6.60
2018-08-19T13:02:50.072Z,4.75
2018-08-19T13:05:20.278Z,4.15
2018-08-19T13:07:49.994Z,4.62
2018-08-19T13:10:19.763Z,4.03
2018-08-19T13:12:52.891Z,3.90
2018-08-19T13:15:23.279Z,6.12
2018-08-19T13:17:53.039Z,3.83
2018-08-19T13:20:22.671Z,4.12
2018-08-19T13:22:59.706Z,7.12
2018-08-19T13:25:29.642Z,7.35
2018-08-19T13:27:59.228Z,6.62
2018-08-19T13:30:28.835Z,7.00
2018-08-19T13:32:58.434Z,4.87
2018-08-19T13:35:27.983Z,11.80
2018-08-19T13:37:57.628Z,5.00
2018-08-19T13:40:27.195Z,6.83
2018-08-19T13:42:56.751Z,4.70
2018-08-19T13:45:27.283Z,5.53
2018-08-19T13:47:56.793Z,4.93
2018-08-19T13:50:26.381Z,4.43
2018-08-19T13:52:55.926Z,5.37
2018-08-19T13:55:25.526Z,6.03
2018-08-19T13:57:55.102Z,4.33
2018-08-19T14:00:28.856Z,6.77
2018-08-19T14:02:59.852Z,6.83
2018-08-19T14:05:29.403Z,5.97
2018-08-19T14:07:58.949Z,4.50
2018-08-19T14:10:28.560Z,4.70
2018-08-19T14:12:58.144Z,8.90
2018-08-19T14:15:27.667Z,3.97
2018-08-19T14:17:57.336Z,4.70
2018-08-19T14:20:26.867Z,4.80
2018-08-19T14:22:56.420Z,6.90
2018-08-19T14:25:25.970Z,6.67
2018-08-19T14:27:55.463Z,6.30
2018-08-19T14:30:25.081Z,5.43
2018-08-19T14:32:54.644Z,5.23
2018-08-19T14:35:24.186Z,4.77
2018-08-19T14:37:53.767Z,4.57
2018-08-19T14:40:23.578Z,4.57
2018-08-19T14:42:52.994Z,4.20
2018-08-19T14:45:22.571Z,4.80
2018-08-19T14:47:52.063Z,4.57
2018-08-19T14:50:21.747Z,6.47
2018-08-19T14:52:51.344Z,4.67
2018-08-19T14:55:20.891Z,4.43
2018-08-19T14:57:50.402Z,4.40
2018-08-19T15:00:19.947Z,4.97
2018-08-19T15:02:49.527Z,5.40
2018-08-19T15:05:20.538Z,4.23
2018-08-19T15:07:50.306Z,4.20
2018-08-19T15:10:26.374Z,4.37
2018-08-19T15:12:55.925Z,5.93
2018-08-19T15:15:25.527Z,7.40
2018-08-19T15:18:01.701Z,7.00
2018-08-19T15:20:33.650Z,23.90
2018-08-19T15:23:15.787Z,12.13
2018-08-19T15:25:45.512Z,6.33
2018-08-19T15:28:15.459Z,9.53
2018-08-19T15:30:44.975Z,6.20
2018-08-19T15:33:15.354Z,6.37
2018-08-19T15:35:45.019Z,5.47
2018-08-19T15:38:14.632Z,5.70
2018-08-19T15:40:46.189Z,3.90
2018-08-19T15:43:15.764Z,4.30
2018-08-19T15:45:45.786Z,5.00
2018-08-19T15:48:15.412Z,4.77
2018-08-19T15:50:45.028Z,3.40
2018-08-19T15:53:14.697Z,3.97
2018-08-19T15:55:44.308Z,4.20
2018-08-19T15:58:13.844Z,3.63
2018-08-19T16:00:43.388Z,3.67
2018-08-19T16:03:13.446Z,4.30
2018-08-19T16:05:42.972Z,4.77
2018-08-19T16:08:12.487Z,4.67
2018-08-19T16:10:42.859Z,5.13
2018-08-19T16:13:12.802Z,4.60
2018-08-19T16:15:42.476Z,5.43
2018-08-19T16:18:12.097Z,5.17
2018-08-19T16:20:44.596Z,5.77
2018-08-19T16:23:14.204Z,5.70
2018-08-19T16:25:43.779Z,6.10
2018-08-19T16:28:13.389Z,6.03
2018-08-19T16:30:42.937Z,5.87
2018-08-19T16:33:12.475Z,5.80
2018-08-19T16:35:41.979Z,5.27
2018-08-19T16:38:11.624Z,4.87
2018-08-19T16:40:41.215Z,5.23
2018-08-19T16:43:10.767Z,5.30
2018-08-19T16:45:40.375Z,4.77
2018-08-19T16:48:09.980Z,4.63
2018-08-19T16:50:39.600Z,4.53
2018-08-19T16:53:09.147Z,5.03
2018-08-19T16:55:38.715Z,4.43
2018-08-19T16:58:08.270Z,4.77
2018-08-19T17:00:37.807Z,4.80
2018-08-19T17:03:40.858Z,4.70
2018-08-19T17:06:12.763Z,5.53
2018-08-19T17:08:42.704Z,4.53
2018-08-19T17:11:13.315Z,4.97
2018-08-19T17:13:42.904Z,4.83
2018-08-19T17:16:12.499Z,4.87
2018-08-19T17:18:42.052Z,4.47
2018-08-19T17:21:11.652Z,4.83
2018-08-19T17:23:41.150Z,5.17
2018-08-19T17:26:18.599Z,5.50
2018-08-19T17:28:48.111Z,6.73
2018-08-19T17:31:17.652Z,5.60
2018-08-19T17:33:47.187Z,4.50
2018-08-19T17:36:37.302Z,4.70
2018-08-19T17:39:10.106Z,4.50
2018-08-19T17:41:39.674Z,4.70
2018-08-19T17:44:09.247Z,6.80
2018-08-19T17:46:38.752Z,5.30
2018-08-19T17:49:12.783Z,5.27
2018-08-19T17:51:42.327Z,5.80
2018-08-19T17:54:27.114Z,6.37
2018-08-19T17:56:57.820Z,5.50
2018-08-19T17:59:27.448Z,6.40
2018-08-19T18:01:57.081Z,6.60
2018-08-19T18:04:33.375Z,6.43
2018-08-19T18:07:02.883Z,5.93
2018-08-19T18:09:32.552Z,5.90
2018-08-19T18:12:05.144Z,6.47
2018-08-19T18:14:35.492Z,6.17
2018-08-19T18:17:05.081Z,6.77
2018-08-19T18:19:35.119Z,7.47
2018-08-19T18:22:04.796Z,5.97
2018-08-19T18:24:34.405Z,8.53
2018-08-19T18:27:03.996Z,6.10
2018-08-19T18:29:44.459Z,6.73
2018-08-19T18:32:14.080Z,6.50
2018-08-19T18:34:43.608Z,6.27
2018-08-19T18:37:13.163Z,6.83
2018-08-19T18:39:44.886Z,6.60
2018-08-19T18:42:21.927Z,6.03
2018-08-19T18:44:51.543Z,8.50
2018-08-19T18:47:21.153Z,6.20
2018-08-19T18:49:50.991Z,6.20
2018-08-19T18:52:20.507Z,6.00
2018-08-19T18:54:50.035Z,8.30
2018-08-19T18:57:19.624Z,6.70
2018-08-19T18:59:49.162Z,6.23
2018-08-19T19:02:18.720Z,6.90
2018-08-19T19:04:48.243Z,6.93
2018-08-19T19:07:17.799Z,6.53
2018-08-19T19:09:51.311Z,7.00
2018-08-19T19:12:22.071Z,6.53
2018-08-19T19:14:51.599Z,11.03
2018-08-19T19:17:21.113Z,12.37
2018-08-19T19:19:50.973Z,7.30
2018-08-19T19:22:20.463Z,8.60
2018-08-19T19:24:52.782Z,6.83
2018-08-19T19:27:22.297Z,6.60
2018-08-19T19:29:56.992Z,7.13
2018-08-19T19:32:26.567Z,6.30
2018-08-19T19:34:57.215Z,7.07
2018-08-19T19:37:26.703Z,7.13
2018-08-19T19:40:01.349Z,6.83
2018-08-19T19:42:30.896Z,8.97
2018-08-19T19:45:00.716Z,7.27
2018-08-19T19:47:30.243Z,7.27
2018-08-19T19:50:00.192Z,7.67
2018-08-19T19:52:30.214Z,9.10
2018-08-19T19:54:59.731Z,7.83
2018-08-19T19:57:29.259Z,7.43
2018-08-19T19:59:58.763Z,7.43
2018-08-19T20:02:30.135Z,7.77
2018-08-19T20:05:00.263Z,8.10
2018-08-19T20:07:29.799Z,7.57
2018-08-19T20:09:59.318Z,7.53
2018-08-19T20:12:30.038Z,7.10
2018-08-19T20:15:01.736Z,8.17
2018-08-19T20:17:31.367Z,7.60
2018-08-19T20:20:00.851Z,7.70
2018-08-19T20:22:30.479Z,8.77
2018-08-19T20:25:00.030Z,7.60
2018-08-19T20:27:29.668Z,7.50
2018-08-19T20:29:59.263Z,7.63
2018-08-19T20:32:28.881Z,7.83
2018-08-19T20:34:58.532Z,7.60
2018-08-19T20:37:30.053Z,7.50
2018-08-19T20:39:59.554Z,8.70
2018-08-19T20:42:29.181Z,7.47
2018-08-19T20:44:58.679Z,7.43
2018-08-19T20:47:28.289Z,7.03
2018-08-19T20:49:57.895Z,7.33
2018-08-19T20:52:45.266Z,7.50
2018-08-19T20:55:15.126Z,9.57
2018-08-19T20:57:44.973Z,15.00
2018-08-19T21:00:14.632Z,9.47
2018-08-19T21:02:44.208Z,13.53
2018-08-19T21:05:13.743Z,9.13
2018-08-19T21:07:44.760Z,13.70
2018-08-19T21:10:14.387Z,13.13
2018-08-19T21:12:43.940Z,12.87
2018-08-19T21:15:13.631Z,13.23
2018-08-19T21:17:43.131Z,17.03
2018-08-19T21:20:12.691Z,14.50
2018-08-19T21:22:42.190Z,17.37
2018-08-19T21:25:11.695Z,15.03
2018-08-19T21:27:41.188Z,13.93
2018-08-19T21:30:10.872Z,14.30
2018-08-19T21:32:40.329Z,13.73
2018-08-19T21:35:09.917Z,13.10
2018-08-19T21:37:39.408Z,19.30
2018-08-19T21:40:09.053Z,12.93
2018-08-19T21:42:51.115Z,12.07
2018-08-19T21:45:20.992Z,13.03
2018-08-19T21:47:50.615Z,12.33
2018-08-19T21:50:20.131Z,12.13
2018-08-19T21:52:59.843Z,12.73
2018-08-19T21:55:31.943Z,12.80
2018-08-19T21:58:02.086Z,11.80
2018-08-19T22:00:34.835Z,12.03
2018-08-19T22:03:09.471Z,10.73
2018-08-19T22:05:39.108Z,10.80
2018-08-19T22:08:08.744Z,11.23
2018-08-19T22:10:38.401Z,12.80
2018-08-19T22:13:07.936Z,14.23
2018-08-19T22:15:38.422Z,9.93
2018-08-19T22:18:09.569Z,10.87
2018-08-19T22:20:39.267Z,11.30
2018-08-19T22:23:08.806Z,11.13
2018-08-19T22:25:38.409Z,13.90
2018-08-19T22:28:07.965Z,11.73
2018-08-19T22:30:37.473Z,12.70
2018-08-19T22:33:07.026Z,12.47
2018-08-19T22:35:36.516Z,14.90
2018-08-19T22:38:10.187Z,12.60
2018-08-19T22:40:39.664Z,12.87
2018-08-19T22:43:09.303Z,12.20
2018-08-19T22:45:38.870Z,12.73
2018-08-19T22:48:08.476Z,12.23
2018-08-19T22:50:38.084Z,12.23
2018-08-19T22:53:07.639Z,12.43
2018-08-19T22:55:37.196Z,12.57
2018-08-19T22:58:11.860Z,13.00
2018-08-19T23:00:41.563Z,12.63
2018-08-19T23:03:11.286Z,12.07
2018-08-19T23:05:40.835Z,12.70
2018-08-19T23:08:11.296Z,13.07
2018-08-19T23:10:40.873Z,12.70
2018-08-19T23:15:25.217Z,11.17
2018-08-19T23:17:54.699Z,11.80
2018-08-19T23:20:24.271Z,12.13
2018-08-19T23:22:53.831Z,14.17
2018-08-19T23:25:23.470Z,11.80
2018-08-19T23:27:52.971Z,11.97
2018-08-19T23:30:22.526Z,11.20
2018-08-19T23:32:52.091Z,11.00
2018-08-19T23:35:21.632Z,11.43
2018-08-19T23:37:51.199Z,11.10
2018-08-19T23:40:20.743Z,12.10
2018-08-19T23:42:50.309Z,11.00
2018-08-19T23:45:19.843Z,10.20
2018-08-19T23:47:49.339Z,11.03
2018-08-19T23:50:18.908Z,11.27
2018-08-19T23:52:48.399Z,11.47
2018-08-19T23:55:17.972Z,11.50
2018-08-19T23:57:47.466Z,11.43
